Time;durP1;ratioP1;P1;durP2;ratioP2;P2;SDS_P1;SDS_P2;PMS_P1;PMS_P2;Temp;Humidity;BMP_temperature;BMP_pressure;BME280_temperature;BME280_humidity;BME280_pressure;Samples;Min_cycle;Max_cycle;Signal;HPM_P1;HPM_P2
2023/02/06 00:01:18;;;;;;;1.75;1.67;;;1.20;99.90;;;;;;5043595;28;20259;-79
2023/02/06 00:03:45;;;;;;;0.50;0.40;;;1.20;99.90;;;;;;5043322;28;20282;-80
2023/02/06 00:06:12;;;;;;;0.50;0.40;;;1.30;99.90;;;;;;5043021;28;20206;-80
2023/02/06 00:08:40;;;;;;;0.50;0.40;;;1.30;99.90;;;;;;5043011;28;20222;-79
2023/02/06 00:11:09;;;;;;;0.50;0.40;;;1.20;99.90;;;;;;5043298;28;20215;-80
2023/02/06 00:13:37;;;;;;;0.50;0.40;;;1.20;99.90;;;;;;5042538;28;20259;-79
2023/02/06 00:16:05;;;;;;;0.50;0.40;;;1.20;99.90;;;;;;5042557;28;20200;-80
2023/02/06 00:18:32;;;;;;;0.50;0.40;;;1.30;99.90;;;;;;5042989;28;20302;-80
2023/02/06 00:20:59;;;;;;;0.50;0.40;;;1.30;99.90;;;;;;5042619;28;20227;-79
2023/02/06 00:23:26;;;;;;;0.50;0.40;;;1.30;99.90;;;;;;5043021;28;20291;-80
2023/02/06 00:25:54;;;;;;;0.50;0.40;;;1.20;99.90;;;;;;5043034;28;20241;-79
2023/02/06 00:28:21;;;;;;;0.50;0.40;;;1.20;99.90;;;;;;5042087;28;20259;-79
2023/02/06 00:30:48;;;;;;;0.50;0.40;;;1.20;99.90;;;;;;5043721;28;20241;-80
2023/02/06 00:33:14;;;;;;;0.50;0.40;;;1.10;99.90;;;;;;5043342;28;20195;-80
2023/02/06 00:35:41;;;;;;;0.50;0.40;;;1.00;99.90;;;;;;5039179;28;20202;-79
2023/02/06 00:38:10;;;;;;;0.50;0.40;;;1.10;99.90;;;;;;5039590;28;20215;-80
2023/02/06 00:40:37;;;;;;;0.50;0.50;;;1.10;99.90;;;;;;5040257;28;20291;-79
2023/02/06 00:43:05;;;;;;;0.50;0.40;;;1.00;99.90;;;;;;5040135;28;20191;-80
2023/02/06 00:45:32;;;;;;;0.47;0.40;;;1.00;99.90;;;;;;5040448;28;20740;-79
2023/02/06 00:47:59;;;;;;;0.50;0.40;;;1.00;99.90;;;;;;5040130;28;20195;-78
2023/02/06 00:50:26;;;;;;;0.50;0.40;;;1.00;99.90;;;;;;5040570;28;20283;-77
2023/02/06 00:52:53;;;;;;;0.50;0.40;;;1.00;99.90;;;;;;5040030;28;20286;-80
2023/02/06 00:55:20;;;;;;;0.50;0.40;;;0.90;99.90;;;;;;5039295;28;20196;-79
2023/02/06 00:57:46;;;;;;;0.50;0.40;;;0.90;99.90;;;;;;5039447;28;20616;-79
2023/02/06 01:00:16;;;;;;;0.50;0.40;;;0.90;99.90;;;;;;5039847;28;20250;-80
2023/02/06 01:02:42;;;;;;;0.50;0.40;;;0.90;99.90;;;;;;5040139;28;20191;-78
2023/02/06 01:05:10;;;;;;;0.50;0.50;;;0.80;99.90;;;;;;5039592;28;20195;-80
2023/02/06 01:07:38;;;;;;;0.50;0.40;;;0.90;99.90;;;;;;5039240;28;20226;-80
2023/02/06 01:10:07;;;;;;;0.50;0.40;;;0.90;99.90;;;;;;5039551;28;20223;-79
2023/02/06 01:12:34;;;;;;;0.50;0.40;;;0.80;99.90;;;;;;5038802;28;20196;-78
2023/02/06 01:15:01;;;;;;;0.50;0.40;;;0.70;99.90;;;;;;5039402;28;20199;-80
2023/02/06 01:17:31;;;;;;;0.50;0.40;;;0.70;99.90;;;;;;5039848;28;20202;-80
2023/02/06 01:19:58;;;;;;;0.50;0.40;;;0.60;99.90;;;;;;5038921;28;20239;-80
2023/02/06 01:22:25;;;;;;;0.50;0.40;;;0.60;99.90;;;;;;5040069;28;20275;-79
2023/02/06 01:24:52;;;;;;;0.50;0.40;;;0.70;99.90;;;;;;5039000;28;20262;-79
2023/02/06 01:27:19;;;;;;;0.50;0.40;;;0.70;99.90;;;;;;5039262;28;20263;-79
2023/02/06 01:29:46;;;;;;;0.50;0.50;;;0.70;99.90;;;;;;5039308;28;20222;-79
2023/02/06 01:32:13;;;;;;;0.50;0.40;;;0.70;99.90;;;;;;5039373;28;20258;-80
2023/02/06 01:34:41;;;;;;;0.50;0.40;;;0.60;99.90;;;;;;5038955;28;20223;-79
2023/02/06 01:37:08;;;;;;;0.50;0.40;;;0.60;99.90;;;;;;5039336;28;20282;-79
2023/02/06 01:39:34;;;;;;;0.50;0.40;;;0.60;99.90;;;;;;5038975;28;20226;-79
2023/02/06 01:42:02;;;;;;;2.35;2.25;;;0.60;99.90;;;;;;5039101;28;20661;-79
2023/02/06 01:44:32;;;;;;;0.40;0.40;;;0.60;99.90;;;;;;5038261;28;20199;-78
2023/02/06 01:47:00;;;;;;;0.50;0.40;;;0.60;99.90;;;;;;5040282;28;20222;-78
2023/02/06 01:49:30;;;;;;;0.50;0.40;;;0.60;99.90;;;;;;5039497;28;20302;-76
2023/02/06 01:52:03;;;;;;;0.50;0.40;;;0.60;99.90;;;;;;5037983;28;20199;-80
2023/02/06 01:54:31;;;;;;;0.50;0.40;;;0.60;99.90;;;;;;5040539;28;20270;-80
2023/02/06 01:57:02;;;;;;;0.50;0.50;;;0.70;99.90;;;;;;5042139;28;20226;-80
2023/02/06 01:59:29;;;;;;;0.50;0.40;;;0.60;99.90;;;;;;5040420;28;20222;-80
2023/02/06 02:01:56;;;;;;;0.50;0.40;;;0.60;99.90;;;;;;5038950;28;20263;-80
2023/02/06 02:04:25;;;;;;;0.50;0.40;;;0.60;99.90;;;;;;5037690;28;20195;-80
2023/02/06 02:07:02;;;;;;;0.50;0.40;;;0.50;99.90;;;;;;5038151;28;20632;-79
2023/02/06 02:09:30;;;;;;;0.50;0.40;;;0.40;99.90;;;;;;5038907;28;20726;-81
2023/02/06 02:11:57;;;;;;;0.50;0.40;;;0.50;99.90;;;;;;5038514;28;20290;-80
2023/02/06 02:14:24;;;;;;;0.50;0.40;;;0.50;99.90;;;;;;5036763;28;20199;-80
2023/02/06 02:17:03;;;;;;;0.50;0.40;;;0.50;99.90;;;;;;5038234;28;20278;-80
2023/02/06 02:20:09;;;;;;;0.50;0.40;;;0.60;99.90;;;;;;5037550;28;20693;-80
2023/02/06 02:22:53;;;;;;;0.50;0.40;;;0.60;99.90;;;;;;5038274;28;20196;-80
2023/02/06 02:25:49;;;;;;;0.50;0.40;;;0.60;99.90;;;;;;5039064;28;20245;-80
2023/02/06 02:28:41;;;;;;;0.50;0.40;;;0.60;99.90;;;;;;5006359;28;20757;-79
2023/02/06 02:31:43;;;;;;;0.50;0.40;;;0.50;99.90;;;;;;5038536;28;20287;-80
2023/02/06 02:34:39;;;;;;;0.50;0.40;;;0.50;99.90;;;;;;5040063;28;20273;-79
2023/02/06 02:37:15;;;;;;;0.50;0.40;;;0.60;99.90;;;;;;5039844;28;20243;-79
2023/02/06 02:39:46;;;;;;;0.47;0.40;;;0.50;99.90;;;;;;5039512;28;20228;-80
2023/02/06 02:42:20;;;;;;;0.50;0.40;;;0.50;99.90;;;;;;5039515;28;20195;-80
2023/02/06 02:44:53;;;;;;;0.50;0.40;;;0.50;99.90;;;;;;5038476;28;20179;-80
2023/02/06 02:47:24;;;;;;;0.50;0.40;;;0.50;99.90;;;;;;5039778;28;20191;-79
2023/02/06 02:49:54;;;;;;;0.50;0.40;;;0.40;99.90;;;;;;5039421;28;20213;-79
2023/02/06 02:52:21;;;;;;;0.40;0.40;;;0.40;99.90;;;;;;5039098;28;20184;-79
2023/02/06 02:54:48;;;;;;;0.50;0.40;;;0.40;99.90;;;;;;5038444;28;20568;-80
2023/02/06 02:57:21;;;;;;;0.50;0.50;;;0.40;99.90;;;;;;5038805;28;20229;-81
2023/02/06 02:59:50;;;;;;;0.50;0.40;;;0.40;99.90;;;;;;5038887;28;20230;-79
2023/02/06 03:02:21;;;;;;;0.50;0.40;;;0.50;99.90;;;;;;5040223;28;20195;-80
2023/02/06 03:04:51;;;;;;;0.50;0.40;;;0.50;99.90;;;;;;5039770;28;20214;-79
2023/02/06 03:07:33;;;;;;;0.50;0.40;;;0.50;99.90;;;;;;5040676;28;20651;-80
2023/02/06 03:10:11;;;;;;;0.50;0.40;;;0.40;99.90;;;;;;5040570;28;20266;-80
2023/02/06 03:12:44;;;;;;;0.50;0.40;;;0.40;99.90;;;;;;5039816;28;20720;-79
2023/02/06 03:15:22;;;;;;;0.50;0.40;;;0.40;99.90;;;;;;5040135;28;20282;-80
2023/02/06 03:17:56;;;;;;;0.50;0.40;;;0.30;99.90;;;;;;5041589;28;20210;-79
2023/02/06 03:20:23;;;;;;;0.40;0.40;;;0.30;99.90;;;;;;5040390;28;20250;-79
2023/02/06 03:22:54;;;;;;;0.45;0.40;;;0.30;99.90;;;;;;5040982;28;20274;-80
2023/02/06 03:25:28;;;;;;;0.50;0.40;;;0.30;99.90;;;;;;5040962;28;20191;-79
2023/02/06 03:27:55;;;;;;;0.47;0.40;;;0.20;99.90;;;;;;5040757;28;20203;-79
2023/02/06 03:30:24;;;;;;;1.23;1.20;;;0.20;99.90;;;;;;5040729;28;20243;-80
2023/02/06 03:32:56;;;;;;;0.50;0.40;;;0.10;99.90;;;;;;5041185;28;20291;-79
2023/02/06 03:35:29;;;;;;;0.50;0.40;;;0.10;99.90;;;;;;5040551;28;20206;-79
2023/02/06 03:37:57;;;;;;;0.50;0.40;;;0.10;99.90;;;;;;5041458;28;20230;-80
2023/02/06 03:40:26;;;;;;;0.50;0.40;;;0.00;99.90;;;;;;5042101;28;20311;-80
2023/02/06 03:42:56;;;;;;;0.50;0.40;;;0.00;99.90;;;;;;5044101;28;20218;-80
2023/02/06 03:45:28;;;;;;;0.50;0.40;;;0.00;99.90;;;;;;5045267;28;20207;-81
2023/02/06 03:48:02;;;;;;;0.50;0.40;;;0.00;99.90;;;;;;5044880;28;20223;-80
2023/02/06 03:50:30;;;;;;;0.50;0.40;;;0.00;99.90;;;;;;5045532;28;20233;-78
2023/02/06 03:53:00;;;;;;;0.50;0.40;;;-0.10;99.90;;;;;;5045759;28;20234;-80
2023/02/06 03:55:27;;;;;;;0.50;0.40;;;-0.10;99.90;;;;;;5045298;28;20245;-79
2023/02/06 03:58:03;;;;;;;0.50;0.43;;;-0.10;99.90;;;;;;5045812;28;20199;-80
2023/02/06 04:00:31;;;;;;;0.50;0.40;;;-0.20;99.90;;;;;;5046206;28;20246;-77
2023/02/06 04:02:59;;;;;;;0.50;0.40;;;-0.20;99.90;;;;;;5046493;28;20249;-79
2023/02/06 04:05:27;;;;;;;0.50;0.40;;;-0.10;99.90;;;;;;5046490;28;20192;-77
2023/02/06 04:07:55;;;;;;;0.50;0.40;;;-0.10;99.90;;;;;;5046394;28;20199;-79
2023/02/06 04:10:24;;;;;;;0.50;0.40;;;-0.20;99.90;;;;;;5045825;28;20261;-79
2023/02/06 04:12:51;;;;;;;0.50;0.40;;;-0.20;99.90;;;;;;5045466;28;20195;-79
2023/02/06 04:15:17;;;;;;;0.50;0.40;;;-0.30;99.90;;;;;;5043040;28;20199;-80
2023/02/06 04:17:44;;;;;;;0.50;0.40;;;-0.30;99.90;;;;;;5044577;28;20274;-79
2023/02/06 04:20:12;;;;;;;0.50;0.40;;;-0.30;99.90;;;;;;5044279;28;20254;-80
2023/02/06 04:22:39;;;;;;;0.50;0.40;;;-0.30;99.90;;;;;;5042948;28;20597;-79
2023/02/06 04:25:06;;;;;;;0.50;0.40;;;-0.40;99.90;;;;;;5042735;28;20223;-79
2023/02/06 04:27:35;;;;;;;0.50;0.40;;;-0.40;99.90;;;;;;5042967;28;20219;-80
2023/02/06 04:30:01;;;;;;;0.50;0.40;;;-0.30;99.90;;;;;;5042812;28;20211;-79
2023/02/06 04:32:28;;;;;;;0.50;0.40;;;-0.30;99.90;;;;;;5044975;28;20238;-81
2023/02/06 04:34:55;;;;;;;0.47;0.40;;;-0.30;99.90;;;;;;5043319;28;20200;-79
2023/02/06 04:37:22;;;;;;;0.50;0.40;;;-0.30;99.90;;;;;;5044700;28;20192;-80
2023/02/06 04:39:49;;;;;;;0.50;0.40;;;-0.30;99.90;;;;;;5043287;28;20702;-80
2023/02/06 04:42:16;;;;;;;0.50;0.40;;;-0.30;99.90;;;;;;5044392;28;20282;-79
2023/02/06 04:44:44;;;;;;;0.50;0.40;;;-0.30;99.90;;;;;;5044719;28;20259;-82
2023/02/06 04:47:12;;;;;;;0.50;0.50;;;-0.20;99.90;;;;;;5044647;28;20200;-80
2023/02/06 04:49:38;;;;;;;0.50;0.40;;;-0.30;99.90;;;;;;5046021;28;20226;-80
2023/02/06 04:52:05;;;;;;;0.50;0.40;;;-0.20;99.90;;;;;;5045682;28;20722;-81
2023/02/06 04:54:32;;;;;;;0.50;0.50;;;-0.20;99.90;;;;;;5043610;28;20195;-79
2023/02/06 04:56:59;;;;;;;0.50;0.40;;;-0.20;99.90;;;;;;5044475;28;20278;-80
2023/02/06 04:59:26;;;;;;;0.47;0.40;;;-0.20;99.90;;;;;;5044748;28;20239;-80
2023/02/06 05:01:54;;;;;;;0.50;0.40;;;-0.20;99.90;;;;;;5043229;28;20195;-78
2023/02/06 05:04:21;;;;;;;0.50;0.40;;;-0.10;99.90;;;;;;5042649;28;20195;-78
2023/02/06 05:06:48;;;;;;;0.50;0.40;;;0.00;99.90;;;;;;5042733;28;20237;-79
2023/02/06 05:09:15;;;;;;;0.50;0.40;;;0.00;99.90;;;;;;5043357;28;20641;-80
2023/02/06 05:11:44;;;;;;;0.60;0.60;;;0.10;99.90;;;;;;5042429;28;20215;-79
2023/02/06 05:14:11;;;;;;;0.50;0.40;;;0.20;99.90;;;;;;5042894;28;20195;-80
2023/02/06 05:16:38;;;;;;;0.50;0.40;;;0.40;99.90;;;;;;5042199;28;20286;-78
2023/02/06 05:19:06;;;;;;;0.50;0.40;;;0.50;99.90;;;;;;5043746;28;20254;-80
2023/02/06 05:21:33;;;;;;;4.75;1.65;;;0.60;99.90;;;;;;5042940;28;20286;-79
2023/02/06 05:24:00;;;;;;;1.70;1.60;;;0.80;99.90;;;;;;5042534;28;20254;-80
2023/02/06 05:26:27;;;;;;;0.50;0.40;;;0.90;99.90;;;;;;5042096;28;20197;-78
2023/02/06 05:28:53;;;;;;;0.50;0.40;;;0.90;99.90;;;;;;5041839;28;20305;-80
2023/02/06 05:31:20;;;;;;;0.50;0.40;;;0.90;99.90;;;;;;5043739;28;20218;-81
2023/02/06 05:33:50;;;;;;;0.50;0.40;;;0.90;99.90;;;;;;5042834;28;20266;-80
2023/02/06 05:36:19;;;;;;;0.50;0.40;;;0.90;99.90;;;;;;5042820;28;20192;-79
2023/02/06 05:38:46;;;;;;;0.50;0.40;;;0.90;99.90;;;;;;5043474;28;20790;-80
2023/02/06 05:41:13;;;;;;;1.35;1.08;;;1.00;99.90;;;;;;5039475;28;20257;-78
2023/02/06 05:43:40;;;;;;;0.50;0.40;;;1.10;99.90;;;;;;5038670;28;20230;-79
2023/02/06 05:46:08;;;;;;;0.50;0.40;;;1.10;99.90;;;;;;5039288;28;20282;-81
2023/02/06 05:48:35;;;;;;;0.70;0.70;;;1.00;99.90;;;;;;5036561;28;20802;-78
2023/02/06 05:51:02;;;;;;;0.50;0.47;;;1.10;99.90;;;;;;5041633;28;20198;-80
2023/02/06 05:53:30;;;;;;;0.50;0.40;;;1.00;99.90;;;;;;5041620;28;20201;-79
2023/02/06 05:55:57;;;;;;;0.40;0.40;;;1.10;99.90;;;;;;5040734;28;20191;-79
2023/02/06 05:58:24;;;;;;;0.50;0.40;;;1.10;99.90;;;;;;5041206;28;20294;-79
2023/02/06 06:00:51;;;;;;;0.50;0.40;;;1.10;99.90;;;;;;5041239;28;20242;-79
2023/02/06 06:03:18;;;;;;;0.50;0.40;;;1.10;99.90;;;;;;5042011;28;20218;-82
2023/02/06 06:05:45;;;;;;;0.40;0.40;;;1.10;99.90;;;;;;5040411;28;20616;-82
2023/02/06 06:08:12;;;;;;;0.50;0.50;;;1.00;99.90;;;;;;5039856;28;20219;-79
2023/02/06 06:10:40;;;;;;;0.60;0.60;;;1.00;99.90;;;;;;5040636;28;20219;-79
2023/02/06 06:13:08;;;;;;;0.50;0.40;;;1.10;99.90;;;;;;5040916;28;20227;-81
2023/02/06 06:15:34;;;;;;;0.57;0.55;;;1.10;99.90;;;;;;5041832;28;20206;-80
2023/02/06 06:18:01;;;;;;;0.50;0.40;;;1.10;99.90;;;;;;5040617;28;20277;-80
2023/02/06 06:20:28;;;;;;;0.50;0.40;;;1.20;99.90;;;;;;5041036;28;20258;-80
2023/02/06 06:22:55;;;;;;;0.50;0.40;;;1.20;99.90;;;;;;5040507;28;20210;-81
2023/02/06 06:25:22;;;;;;;0.50;0.40;;;1.10;99.90;;;;;;5040917;28;20199;-81
2023/02/06 06:27:50;;;;;;;0.50;0.40;;;1.10;99.90;;;;;;5041211;28;20215;-80
2023/02/06 06:30:17;;;;;;;0.50;0.40;;;1.00;99.90;;;;;;5041195;28;20274;-78
2023/02/06 06:32:44;;;;;;;0.50;0.40;;;1.10;99.90;;;;;;5041163;28;20327;-81
2023/02/06 06:35:11;;;;;;;0.47;0.40;;;1.10;99.90;;;;;;5039094;28;20626;-80
2023/02/06 06:37:38;;;;;;;0.98;0.70;;;1.20;99.90;;;;;;5041306;28;20215;-80
2023/02/06 06:40:05;;;;;;;1.35;1.25;;;1.20;99.90;;;;;;5041382;28;20250;-81
2023/02/06 06:42:32;;;;;;;0.50;0.40;;;1.20;99.90;;;;;;5039544;28;20195;-79
2023/02/06 06:45:00;;;;;;;0.70;0.70;;;1.00;99.90;;;;;;5040712;28;20199;-78
2023/02/06 06:47:28;;;;;;;1.20;1.20;;;1.00;99.90;;;;;;5041431;28;20637;-80
2023/02/06 06:49:54;;;;;;;0.88;0.88;;;1.10;99.90;;;;;;5040613;28;20211;-78
2023/02/06 06:52:21;;;;;;;0.50;0.40;;;1.20;99.90;;;;;;5039057;28;20202;-80
2023/02/06 06:54:48;;;;;;;0.50;0.47;;;1.20;99.90;;;;;;5038898;28;20196;-80
2023/02/06 06:57:15;;;;;;;0.50;0.40;;;1.10;99.90;;;;;;5038523;28;20188;-81
2023/02/06 06:59:42;;;;;;;0.50;0.40;;;1.10;99.90;;;;;;5038056;28;20214;-81
2023/02/06 07:02:11;;;;;;;0.50;0.40;;;1.10;99.90;;;;;;5038630;28;20211;-81
2023/02/06 07:04:38;;;;;;;0.50;0.40;;;1.00;99.90;;;;;;5021913;28;20218;-81
2023/02/06 07:07:05;;;;;;;1.45;1.38;;;1.00;99.90;;;;;;5039233;28;20199;-81
2023/02/06 07:09:32;;;;;;;0.50;0.47;;;1.00;99.90;;;;;;5039415;28;20243;-81
2023/02/06 07:11:59;;;;;;;0.50;0.40;;;1.00;99.90;;;;;;5039646;28;20263;-84
2023/02/06 07:14:26;;;;;;;0.50;0.40;;;1.10;99.90;;;;;;5038527;28;20192;-82
2023/02/06 07:16:55;;;;;;;0.50;0.40;;;1.10;99.90;;;;;;5040000;28;20271;-82
2023/02/06 07:19:23;;;;;;;0.50;0.40;;;1.20;99.90;;;;;;5041582;28;20219;-80
2023/02/06 07:21:50;;;;;;;0.47;0.40;;;1.30;99.90;;;;;;5043721;28;20211;-82
2023/02/06 07:24:17;;;;;;;0.50;0.40;;;1.30;99.90;;;;;;5043260;28;20198;-80
2023/02/06 07:26:44;;;;;;;0.50;0.40;;;1.40;99.90;;;;;;5043832;28;20201;-82
2023/02/06 07:29:11;;;;;;;0.50;0.40;;;1.50;99.90;;;;;;5043224;28;20270;-81
2023/02/06 07:31:37;;;;;;;0.50;0.40;;;1.50;99.90;;;;;;5044083;28;20187;-80
2023/02/06 07:34:04;;;;;;;0.63;0.63;;;1.50;99.90;;;;;;5044421;28;20206;-82
2023/02/06 07:36:32;;;;;;;0.50;0.40;;;1.60;99.90;;;;;;5042275;28;20222;-81
2023/02/06 07:39:01;;;;;;;0.50;0.40;;;1.70;99.90;;;;;;5044287;28;20219;-81
2023/02/06 07:41:28;;;;;;;0.50;0.50;;;1.60;99.90;;;;;;5044461;28;20314;-82
2023/02/06 07:43:55;;;;;;;0.50;0.40;;;1.60;99.90;;;;;;5043890;28;20827;-80
2023/02/06 07:46:22;;;;;;;0.50;0.40;;;1.60;99.90;;;;;;5042983;28;20219;-82
2023/02/06 07:48:48;;;;;;;0.50;0.40;;;1.40;99.90;;;;;;5042999;28;20697;-83
2023/02/06 07:51:15;;;;;;;0.50;0.40;;;1.60;99.90;;;;;;5041259;28;20222;-81
2023/02/06 07:53:43;;;;;;;0.50;0.40;;;1.70;99.90;;;;;;5043771;28;20191;-80
2023/02/06 07:56:12;;;;;;;0.50;0.40;;;1.70;99.90;;;;;;5042963;28;20199;-81
2023/02/06 07:58:39;;;;;;;0.50;0.40;;;1.80;99.90;;;;;;5042251;28;20198;-82
2023/02/06 08:01:07;;;;;;;0.70;0.70;;;1.70;99.90;;;;;;5040985;28;20215;-81
2023/02/06 08:03:34;;;;;;;0.50;0.40;;;1.80;99.90;;;;;;5042112;28;20195;-83
2023/02/06 08:06:06;;;;;;;0.50;0.50;;;1.80;99.90;;;;;;5035767;28;20237;-81
2023/02/06 08:08:33;;;;;;;0.50;0.40;;;1.80;99.90;;;;;;5026197;28;20210;-83
2023/02/06 08:11:04;;;;;;;0.50;0.40;;;1.90;99.90;;;;;;5036339;28;20661;-82
2023/02/06 08:13:32;;;;;;;0.50;0.40;;;2.00;99.90;;;;;;5042306;28;20191;-82
2023/02/06 08:16:02;;;;;;;0.50;0.40;;;2.00;99.90;;;;;;5042199;28;20195;-79
2023/02/06 08:18:29;;;;;;;1.15;1.15;;;2.00;99.90;;;;;;5043627;28;20264;-81
2023/02/06 08:21:01;;;;;;;0.60;0.60;;;1.80;99.90;;;;;;5040436;28;20302;-82
2023/02/06 08:23:27;;;;;;;0.70;0.70;;;1.90;99.90;;;;;;5040642;28;20647;-83
2023/02/06 08:26:03;;;;;;;0.50;0.40;;;1.90;99.90;;;;;;5051937;28;20720;-81
2023/02/06 08:28:31;;;;;;;0.50;0.40;;;2.00;99.90;;;;;;5049747;28;20183;-85
2023/02/06 08:30:58;;;;;;;0.50;0.40;;;2.10;99.90;;;;;;5048388;28;20198;-86
2023/02/06 08:33:25;;;;;;;0.50;0.40;;;2.20;99.90;;;;;;5044412;28;20199;-81
2023/02/06 08:35:52;;;;;;;0.75;0.75;;;2.20;99.90;;;;;;5040722;28;20274;-82
2023/02/06 08:38:19;;;;;;;0.50;0.40;;;2.30;99.90;;;;;;5044495;28;20549;-81
2023/02/06 08:40:46;;;;;;;0.50;0.40;;;2.40;99.90;;;;;;5041377;28;20326;-83
2023/02/06 08:43:15;;;;;;;0.50;0.40;;;2.50;99.90;;;;;;5041684;28;20283;-83
2023/02/06 08:45:42;;;;;;;0.50;0.40;;;2.50;99.90;;;;;;5044341;28;20192;-81
2023/02/06 08:48:08;;;;;;;0.50;0.40;;;2.50;99.90;;;;;;5042107;28;20237;-84
2023/02/06 08:50:35;;;;;;;0.50;0.40;;;2.60;99.90;;;;;;5044973;28;20218;-81
2023/02/06 08:53:02;;;;;;;0.50;0.40;;;2.70;99.90;;;;;;5041340;28;20222;-81
2023/02/06 08:55:29;;;;;;;0.50;0.40;;;2.70;99.90;;;;;;5042293;28;20223;-82
2023/02/06 08:57:56;;;;;;;0.90;0.90;;;2.70;99.90;;;;;;5044462;28;20553;-80
2023/02/06 09:00:24;;;;;;;2.17;2.08;;;2.70;99.90;;;;;;5044102;28;20241;-82
2023/02/06 09:02:52;;;;;;;1.70;1.15;;;2.70;99.90;;;;;;5042491;28;20259;-82
2023/02/06 09:05:19;;;;;;;0.60;0.60;;;2.80;99.90;;;;;;5045086;28;20194;-81
2023/02/06 09:07:46;;;;;;;0.50;0.40;;;2.90;99.90;;;;;;5042341;28;20286;-81
2023/02/06 09:10:14;;;;;;;0.50;0.40;;;2.90;99.90;;;;;;5039746;28;20239;-81
2023/02/06 09:12:41;;;;;;;86.65;43.70;;;3.00;99.90;;;;;;5040476;28;20219;-80
2023/02/06 09:15:09;;;;;;;1.25;1.10;;;3.00;99.90;;;;;;5041466;28;20230;-79
2023/02/06 09:17:37;;;;;;;0.50;0.50;;;3.00;99.90;;;;;;5040152;28;20500;-83
2023/02/06 09:20:04;;;;;;;0.68;0.68;;;3.00;99.90;;;;;;5041854;28;20234;-81
2023/02/06 09:22:34;;;;;;;0.50;0.40;;;3.00;99.90;;;;;;5036155;28;20211;-82
2023/02/06 09:25:01;;;;;;;0.50;0.40;;;3.00;99.90;;;;;;5029813;28;20223;-81
2023/02/06 09:27:27;;;;;;;0.50;0.40;;;3.10;99.90;;;;;;5039679;28;20345;-81
2023/02/06 09:29:54;;;;;;;0.50;0.40;;;3.20;99.90;;;;;;5038434;28;20306;-82
2023/02/06 09:32:21;;;;;;;0.57;0.55;;;3.20;99.90;;;;;;5022119;28;20192;-81
2023/02/06 09:34:49;;;;;;;0.50;0.40;;;3.30;99.90;;;;;;5021809;28;20718;-81
2023/02/06 09:37:16;;;;;;;0.50;0.40;;;3.40;99.90;;;;;;5042361;28;20199;-81
2023/02/06 09:39:43;;;;;;;4.63;2.08;;;3.30;99.90;;;;;;5041078;28;20282;-80
2023/02/06 09:42:15;;;;;;;0.50;0.40;;;3.30;99.90;;;;;;5038017;28;20298;-82
2023/02/06 09:44:47;;;;;;;2.17;2.05;;;3.30;99.90;;;;;;5037716;28;20290;-83
2023/02/06 09:47:22;;;;;;;1.70;1.60;;;3.40;99.90;;;;;;5043313;28;20179;-81
2023/02/06 09:49:54;;;;;;;102.97;23.58;;;3.40;99.90;;;;;;5041534;28;20242;-79
2023/02/06 09:52:31;;;;;;;0.50;0.40;;;3.50;99.90;;;;;;5039272;28;20559;-81
2023/02/06 09:55:10;;;;;;;0.50;0.40;;;3.50;99.90;;;;;;5040545;28;20191;-79
2023/02/06 09:57:45;;;;;;;0.50;0.40;;;3.60;99.90;;;;;;5041897;28;20260;-80
2023/02/06 10:00:26;;;;;;;0.50;0.40;;;3.40;99.90;;;;;;5042391;28;20313;-80
2023/02/06 10:03:11;;;;;;;0.50;0.40;;;3.40;99.90;;;;;;5043491;28;20274;-80
2023/02/06 10:05:49;;;;;;;0.50;0.40;;;3.50;99.90;;;;;;5041953;28;20314;-79
2023/02/06 10:08:22;;;;;;;0.50;0.40;;;3.50;99.90;;;;;;5042282;28;20180;-79
2023/02/06 10:10:53;;;;;;;0.50;0.40;;;3.70;99.90;;;;;;5038870;28;20211;-79
2023/02/06 10:13:25;;;;;;;1.23;0.88;;;3.70;99.90;;;;;;5040209;28;20243;-80
2023/02/06 10:15:57;;;;;;;0.50;0.43;;;3.70;99.90;;;;;;5040802;28;20668;-81
2023/02/06 10:18:30;;;;;;;0.50;0.40;;;3.90;99.90;;;;;;5041777;28;20180;-80
2023/02/06 10:21:06;;;;;;;0.50;0.40;;;4.10;99.90;;;;;;5041953;28;20213;-79
2023/02/06 10:23:39;;;;;;;0.80;0.80;;;4.20;99.90;;;;;;5041495;28;20201;-80
2023/02/06 10:26:11;;;;;;;0.50;0.40;;;4.30;99.90;;;;;;5041232;28;20656;-80
2023/02/06 10:28:39;;;;;;;0.55;0.52;;;4.40;99.90;;;;;;5041623;28;20190;-80
2023/02/06 10:31:27;;;;;;;0.50;0.40;;;4.60;99.90;;;;;;5041589;28;20655;-80
2023/02/06 10:34:07;;;;;;;0.50;0.40;;;4.70;99.90;;;;;;5038759;28;20578;-82
2023/02/06 10:36:53;;;;;;;0.50;0.40;;;4.70;99.90;;;;;;5038223;28;20482;-80
2023/02/06 10:39:55;;;;;;;0.50;0.40;;;4.60;99.90;;;;;;5038637;28;20566;-81
2023/02/06 10:42:32;;;;;;;0.50;0.40;;;4.60;99.90;;;;;;5036819;28;20688;-81
2023/02/06 10:45:08;;;;;;;0.50;0.40;;;4.70;99.90;;;;;;5036748;28;20189;-81
2023/02/06 10:47:41;;;;;;;1.50;1.50;;;4.70;99.90;;;;;;5036642;28;20179;-79
2023/02/06 10:50:19;;;;;;;1.20;1.20;;;4.70;99.90;;;;;;5036624;28;20533;-81
2023/02/06 10:52:48;;;;;;;1.27;1.17;;;4.90;99.90;;;;;;5039363;28;20221;-80
2023/02/06 10:55:20;;;;;;;0.50;0.40;;;5.20;99.90;;;;;;5040424;28;20202;-82
2023/02/06 10:57:51;;;;;;;1.80;0.93;;;5.30;99.90;;;;;;5040802;28;20271;-80
2023/02/06 11:00:23;;;;;;;1.35;1.25;;;5.20;99.90;;;;;;5045079;28;20239;-80
2023/02/06 11:02:55;;;;;;;1.25;1.15;;;5.40;99.90;;;;;;5046750;28;20231;-81
2023/02/06 11:05:25;;;;;;;0.50;0.50;;;5.60;99.90;;;;;;5045973;28;20190;-81
2023/02/06 11:07:54;;;;;;;6.30;1.35;;;5.80;99.90;;;;;;5045865;28;20191;-80
2023/02/06 11:10:24;;;;;;;0.50;0.40;;;6.00;99.90;;;;;;5045600;28;20211;-81
2023/02/06 11:13:00;;;;;;;0.88;0.88;;;6.10;99.90;;;;;;5044118;28;20695;-80
2023/02/06 11:15:31;;;;;;;2.65;1.35;;;6.20;99.90;;;;;;5045945;28;20180;-80
2023/02/06 11:18:00;;;;;;;0.50;0.40;;;6.10;99.90;;;;;;5045701;28;20200;-80
2023/02/06 11:20:30;;;;;;;0.50;0.40;;;6.10;99.90;;;;;;5046482;28;20231;-79
2023/02/06 11:23:14;;;;;;;0.50;0.40;;;5.90;99.90;;;;;;5046805;28;20222;-80
2023/02/06 11:25:42;;;;;;;0.50;0.40;;;5.90;99.90;;;;;;5047178;28;20242;-77
2023/02/06 11:28:13;;;;;;;0.70;0.65;;;5.60;99.90;;;;;;5048350;28;20206;-80
2023/02/06 11:30:43;;;;;;;0.50;0.40;;;5.80;99.90;;;;;;5047234;28;20235;-80
2023/02/06 11:33:23;;;;;;;0.98;0.95;;;5.90;99.90;;;;;;5046818;28;20215;-80
2023/02/06 11:35:53;;;;;;;0.93;0.90;;;6.10;99.90;;;;;;5047171;28;20583;-79
2023/02/06 11:38:26;;;;;;;0.88;0.65;;;6.30;99.90;;;;;;5047412;28;20259;-80
2023/02/06 11:41:00;;;;;;;0.65;0.63;;;6.50;99.90;;;;;;5045797;28;20297;-79
2023/02/06 11:43:30;;;;;;;0.50;0.40;;;6.60;99.90;;;;;;5046933;28;20242;-80
2023/02/06 11:46:13;;;;;;;1.20;1.20;;;6.70;99.90;;;;;;5046330;28;20255;-80
2023/02/06 11:48:42;;;;;;;0.50;0.40;;;6.70;99.90;;;;;;5046613;28;20185;-80
2023/02/06 11:51:10;;;;;;;0.50;0.40;;;6.80;99.90;;;;;;5047238;28;20699;-80
2023/02/06 11:53:39;;;;;;;0.50;0.40;;;7.00;99.90;;;;;;5048068;28;20199;-77
2023/02/06 11:56:17;;;;;;;0.60;0.60;;;7.20;99.90;;;;;;5048391;28;20199;-79
2023/02/06 11:58:44;;;;;;;0.50;0.40;;;7.20;99.90;;;;;;5048973;28;20202;-78
2023/02/06 12:01:19;;;;;;;0.50;0.40;;;7.30;99.90;;;;;;5047910;28;20230;-79
2023/02/06 12:03:55;;;;;;;0.50;0.40;;;7.30;99.90;;;;;;5047748;28;20734;-80
2023/02/06 12:06:29;;;;;;;0.50;0.40;;;7.30;99.90;;;;;;5048344;28;20195;-80
2023/02/06 12:09:00;;;;;;;0.70;0.68;;;7.10;99.90;;;;;;5047675;28;20221;-80
2023/02/06 12:11:33;;;;;;;1.40;1.20;;;6.90;99.90;;;;;;5048618;28;20202;-80
2023/02/06 12:14:05;;;;;;;2.38;2.25;;;6.80;99.90;;;;;;5045884;28;20179;-80
2023/02/06 12:16:37;;;;;;;0.50;0.40;;;6.70;99.90;;;;;;5047213;28;20192;-80
2023/02/06 12:19:10;;;;;;;3.35;2.28;;;6.70;99.90;;;;;;5048016;28;20223;-79
2023/02/06 12:21:42;;;;;;;0.50;0.40;;;6.70;99.90;;;;;;5047316;28;20219;-79
2023/02/06 12:24:26;;;;;;;0.50;0.40;;;6.80;99.90;;;;;;5048152;28;20184;-80
2023/02/06 12:26:55;;;;;;;0.50;0.40;;;6.80;99.90;;;;;;5046396;28;20244;-80
2023/02/06 12:29:31;;;;;;;0.70;0.60;;;6.90;99.90;;;;;;5046723;28;20216;-79
2023/02/06 12:32:07;;;;;;;0.50;0.40;;;6.70;99.90;;;;;;5046806;28;20191;-81
2023/02/06 12:34:48;;;;;;;0.60;0.40;;;6.60;99.90;;;;;;5048106;28;20282;-80
2023/02/06 12:37:20;;;;;;;0.50;0.40;;;6.50;99.90;;;;;;5047189;28;20179;-80
2023/02/06 12:39:51;;;;;;;0.70;0.70;;;6.40;99.90;;;;;;5047565;28;20212;-80
2023/02/06 12:42:35;;;;;;;0.50;0.50;;;6.40;99.90;;;;;;5048449;28;20203;-80
2023/02/06 12:45:07;;;;;;;0.50;0.40;;;6.50;99.90;;;;;;5048391;28;20184;-79
2023/02/06 12:47:41;;;;;;;0.65;0.40;;;6.70;99.90;;;;;;5048818;28;20680;-79
2023/02/06 12:50:16;;;;;;;0.50;0.40;;;6.70;99.90;;;;;;5047421;28;20223;-80
2023/02/06 12:52:48;;;;;;;0.50;0.40;;;6.80;99.90;;;;;;5047787;28;20592;-80
2023/02/06 12:55:22;;;;;;;0.50;0.40;;;6.90;99.90;;;;;;5045722;28;20184;-81
2023/02/06 12:57:50;;;;;;;1.02;1.02;;;7.00;99.90;;;;;;5047330;28;20199;-80
2023/02/06 13:00:36;;;;;;;1.02;1.02;;;6.90;99.90;;;;;;5047547;28;20273;-79
2023/02/06 13:03:29;;;;;;;0.50;0.40;;;7.00;99.90;;;;;;5048164;28;20203;-81
2023/02/06 13:06:02;;;;;;;0.50;0.40;;;7.20;99.90;;;;;;5047332;28;20191;-83
2023/02/06 13:08:41;;;;;;;0.93;0.82;;;7.40;99.90;;;;;;5045963;28;20195;-80
2023/02/06 13:11:17;;;;;;;0.50;0.40;;;7.40;99.90;;;;;;5043008;28;20184;-80